createdAt,value
2022-11-20T00:07:07.336Z,-0.10
2022-11-20T00:22:09.179Z,-1.80
2022-11-20T00:37:11.077Z,0.70
2022-11-20T00:52:12.888Z,-1.80
2022-11-20T01:07:14.763Z,-1.50
2022-11-20T01:22:16.675Z,-1.80
2022-11-20T01:37:18.494Z,-2.00
2022-11-20T01:52:39.171Z,-2.10
2022-11-20T02:07:42.446Z,-1.70
2022-11-20T02:22:56.036Z,-1.80
2022-11-20T02:38:01.524Z,-2.00
2022-11-20T02:53:03.443Z,-1.90
2022-11-20T03:08:05.461Z,-1.20
2022-11-20T03:23:07.312Z,-1.90
2022-11-20T03:38:09.163Z,-2.20
2022-11-20T03:53:11.036Z,0.20
2022-11-20T04:08:12.938Z,-2.50
2022-11-20T04:38:16.981Z,-3.50
2022-11-20T04:53:19.891Z,-3.60
2022-11-20T05:08:21.819Z,-3.30
2022-11-20T05:23:23.749Z,-3.40
2022-11-20T05:38:25.575Z,-3.80
2022-11-20T05:53:27.885Z,-3.00
2022-11-20T06:08:30.291Z,-2.70
2022-11-20T06:23:34.035Z,-2.80
2022-11-20T06:38:35.949Z,-3.50
2022-11-20T06:53:38.231Z,-1.60
2022-11-20T07:08:40.182Z,-1.10
2022-11-20T07:23:42.012Z,-3.70
2022-11-20T07:38:43.855Z,-1.80
2022-11-20T07:53:45.696Z,-2.30
2022-11-20T08:08:47.581Z,-1.50
2022-11-20T08:23:49.435Z,-0.20
2022-11-20T08:38:54.232Z,0.90
2022-11-20T08:53:56.126Z,2.00
2022-11-20T09:09:02.033Z,3.20
2022-11-20T09:24:06.467Z,3.10
2022-11-20T09:39:08.336Z,3.20
2022-11-20T16:06:57.736Z,0.60
2022-11-20T16:22:03.075Z,0.90
2022-11-20T16:37:05.295Z,0.90
2022-11-20T16:52:07.918Z,1.90
2022-11-20T17:07:09.902Z,0.90
2022-11-20T17:22:11.770Z,1.00
2022-11-20T17:37:13.635Z,0.50
2022-11-20T17:52:15.598Z,0.40
2022-11-20T18:07:17.760Z,0.40
2022-11-20T18:22:20.641Z,0.40
2022-11-20T18:37:22.492Z,1.60
2022-11-20T18:52:29.438Z,0.00
2022-11-20T19:07:31.775Z,-0.10
2022-11-20T19:22:33.751Z,-0.30
2022-11-20T19:37:35.861Z,-0.60
2022-11-20T19:52:37.807Z,-0.50
2022-11-20T20:07:40.389Z,-0.30
2022-11-20T20:22:42.580Z,-0.30
2022-11-20T20:37:44.441Z,0.00
2022-11-20T20:52:46.328Z,0.00
2022-11-20T21:08:08.500Z,-0.10
2022-11-20T21:23:11.029Z,-0.30
2022-11-20T21:38:12.903Z,-0.40
2022-11-20T21:53:14.882Z,0.10
2022-11-20T22:08:16.746Z,1.40
2022-11-20T22:23:18.590Z,-0.90
2022-11-20T22:38:20.502Z,-1.00
2022-11-20T22:53:22.369Z,-1.20
2022-11-20T23:08:24.228Z,-0.10
2022-11-20T23:23:26.140Z,-1.60
2022-11-20T23:38:28.021Z,-1.80
2022-11-20T23:53:30.084Z,-2.20
